createdAt,value
2022-10-22T00:02:29.524Z,2.37
2022-10-22T00:05:18.287Z,2.50
2022-10-22T00:08:07.534Z,3.13
2022-10-22T00:10:57.627Z,3.50
2022-10-22T00:16:40.802Z,2.33
2022-10-22T00:19:29.557Z,2.60
2022-10-22T00:22:18.284Z,1.80
2022-10-22T00:25:07.445Z,1.70
2022-10-22T00:27:57.528Z,1.60
2022-10-22T00:30:46.196Z,1.83
2022-10-22T00:33:35.017Z,2.43
2022-10-22T00:36:23.613Z,2.77
2022-10-22T00:39:13.217Z,1.77
2022-10-22T00:42:01.853Z,1.80
2022-10-22T00:45:27.329Z,2.20
2022-10-22T00:48:20.054Z,2.13
2022-10-22T00:51:10.526Z,2.67
2022-10-22T00:54:03.078Z,2.93
2022-10-22T00:56:51.764Z,1.60
2022-10-22T00:59:40.839Z,2.57
2022-10-22T01:02:30.929Z,2.73
2022-10-22T01:05:20.041Z,2.30
2022-10-22T01:08:16.179Z,1.73
2022-10-22T01:11:14.788Z,2.30
2022-10-22T01:14:14.275Z,3.33
2022-10-22T01:17:08.855Z,1.83
2022-10-22T01:20:10.494Z,2.27
2022-10-22T01:23:12.374Z,2.73
2022-10-22T01:26:07.874Z,2.60
2022-10-22T01:29:03.905Z,2.53
2022-10-22T01:31:58.136Z,2.27
2022-10-22T01:34:51.947Z,2.40
2022-10-22T01:37:45.409Z,2.20
2022-10-22T01:40:35.333Z,2.03
2022-10-22T01:43:24.235Z,2.63
2022-10-22T01:46:15.393Z,2.50
2022-10-22T01:49:17.175Z,2.27
2022-10-22T01:52:16.897Z,2.43
2022-10-22T01:55:18.094Z,2.57
2022-10-22T01:58:20.997Z,3.13
2022-10-22T02:01:19.617Z,2.40
2022-10-22T02:04:15.269Z,1.93
2022-10-22T02:07:07.988Z,2.03
2022-10-22T02:09:58.694Z,2.23
2022-10-22T02:12:51.837Z,2.07
2022-10-22T02:15:42.443Z,2.83
2022-10-22T02:18:37.500Z,2.20
2022-10-22T02:21:29.027Z,2.67
2022-10-22T02:24:18.888Z,2.30
2022-10-22T02:27:14.011Z,2.40
2022-10-22T02:30:07.607Z,2.17
2022-10-22T02:33:01.710Z,2.47
2022-10-22T02:35:53.755Z,1.80
2022-10-22T02:38:43.361Z,1.57
2022-10-22T02:41:32.574Z,2.33
2022-10-22T02:44:23.528Z,2.30
2022-10-22T02:47:12.112Z,2.90
2022-10-22T02:50:00.726Z,1.90
2022-10-22T02:52:50.716Z,2.83
2022-10-22T02:55:39.353Z,2.23
2022-10-22T02:58:27.911Z,1.50
2022-10-22T03:01:16.498Z,2.87
2022-10-22T03:04:05.334Z,2.30
2022-10-22T03:06:53.945Z,2.33
2022-10-22T03:09:43.954Z,2.13
2022-10-22T03:12:32.687Z,2.53
2022-10-22T03:15:21.301Z,2.40
2022-10-22T03:18:09.937Z,2.93
2022-10-22T03:21:09.206Z,2.67
2022-10-22T03:23:58.215Z,2.13
2022-10-22T03:26:51.913Z,1.87
2022-10-22T03:29:41.505Z,2.17
2022-10-22T03:32:30.118Z,1.87
2022-10-22T03:35:18.696Z,1.73
2022-10-22T03:38:07.414Z,2.20
2022-10-22T03:40:56.083Z,2.23
2022-10-22T03:43:50.101Z,2.23
2022-10-22T03:46:38.720Z,2.00
2022-10-22T03:49:27.319Z,1.77
2022-10-22T03:52:16.872Z,2.37
2022-10-22T03:55:06.365Z,1.97
2022-10-22T03:57:54.992Z,1.97
2022-10-22T04:00:44.991Z,2.13
2022-10-22T04:03:33.704Z,2.90
2022-10-22T04:06:22.319Z,1.70
2022-10-22T04:09:11.026Z,1.50
2022-10-22T04:11:59.917Z,2.60
2022-10-22T04:14:49.357Z,2.17
2022-10-22T04:17:39.690Z,1.83
2022-10-22T04:20:28.605Z,1.90
2022-10-22T04:23:17.173Z,2.37
2022-10-22T04:26:08.543Z,1.87
2022-10-22T04:28:57.127Z,2.53
2022-10-22T04:31:45.773Z,1.70
2022-10-22T04:34:35.799Z,1.97
2022-10-22T04:37:24.413Z,1.90
2022-10-22T04:40:14.080Z,1.70
2022-10-22T04:43:02.647Z,1.70
2022-10-22T04:45:51.336Z,2.47
2022-10-22T04:48:41.653Z,1.90
2022-10-22T04:51:32.091Z,1.77
2022-10-22T04:54:20.759Z,2.30
2022-10-22T04:57:09.379Z,1.90
2022-10-22T04:59:57.998Z,2.47
2022-10-22T05:02:50.899Z,2.03
2022-10-22T05:05:39.483Z,1.13
2022-10-22T05:08:29.438Z,1.60
2022-10-22T05:11:21.538Z,1.70
2022-10-22T05:14:11.753Z,2.23
2022-10-22T05:17:00.365Z,2.03
2022-10-22T05:19:49.070Z,2.37
2022-10-22T05:22:37.733Z,1.57
2022-10-22T05:25:27.804Z,2.03
2022-10-22T05:28:16.457Z,2.50
2022-10-22T05:31:06.327Z,1.77
2022-10-22T05:33:54.917Z,1.57
2022-10-22T05:36:43.793Z,1.83
2022-10-22T05:39:32.450Z,1.50
2022-10-22T05:42:22.500Z,2.00
2022-10-22T05:45:11.864Z,1.33
2022-10-22T05:48:00.493Z,1.77
2022-10-22T05:50:50.936Z,1.57
2022-10-22T05:53:42.605Z,2.23
2022-10-22T05:56:32.874Z,1.40
2022-10-22T05:59:22.901Z,1.90
2022-10-22T06:02:11.720Z,2.20
2022-10-22T06:05:00.343Z,2.20
2022-10-22T06:07:49.086Z,1.53
2022-10-22T06:10:38.078Z,2.07
2022-10-22T06:13:27.023Z,2.30
2022-10-22T06:16:17.047Z,1.43
2022-10-22T06:19:05.907Z,1.87
2022-10-22T06:21:55.137Z,1.83
2022-10-22T06:24:45.119Z,1.60
2022-10-22T06:27:34.038Z,1.70
2022-10-22T06:30:22.740Z,1.77
2022-10-22T06:33:12.815Z,1.70
2022-10-22T06:36:07.737Z,2.00
2022-10-22T06:38:57.501Z,2.07
2022-10-22T06:41:47.235Z,2.33
2022-10-22T06:44:36.123Z,2.13
2022-10-22T06:47:24.764Z,2.30
2022-10-22T06:50:14.778Z,2.13
2022-10-22T06:53:03.446Z,1.83
2022-10-22T06:55:52.033Z,1.43
2022-10-22T06:58:40.981Z,2.07
2022-10-22T07:01:31.927Z,1.67
2022-10-22T07:04:20.598Z,1.50
2022-10-22T07:07:10.645Z,1.93
2022-10-22T07:09:59.452Z,1.40
2022-10-22T07:12:48.189Z,2.20
2022-10-22T07:15:36.940Z,2.63
2022-10-22T07:18:25.754Z,2.83
2022-10-22T07:21:15.255Z,1.87
2022-10-22T07:24:05.849Z,1.87
2022-10-22T07:26:54.578Z,1.70
2022-10-22T07:29:43.238Z,1.93
2022-10-22T07:32:31.834Z,2.13
2022-10-22T07:35:20.417Z,1.70
2022-10-22T07:38:10.153Z,1.80
2022-10-22T07:41:00.547Z,2.03
2022-10-22T07:43:49.149Z,2.47
2022-10-22T07:46:37.704Z,1.60
2022-10-22T07:49:26.685Z,1.77
2022-10-22T07:52:15.357Z,2.37
2022-10-22T07:55:04.034Z,2.47
2022-10-22T07:57:54.218Z,1.93
2022-10-22T08:00:42.899Z,1.30
2022-10-22T08:03:31.675Z,2.03
2022-10-22T08:06:20.399Z,1.70
2022-10-22T08:09:09.078Z,1.60
2022-10-22T08:11:57.799Z,1.63
2022-10-22T08:14:47.878Z,0.80
2022-10-22T08:17:36.575Z,1.03
2022-10-22T08:20:25.225Z,1.40
2022-10-22T08:23:13.849Z,1.00
2022-10-22T08:26:03.259Z,0.77
2022-10-22T08:28:51.938Z,1.27
2022-10-22T08:31:42.091Z,1.10
2022-10-22T08:34:31.072Z,0.87
2022-10-22T08:37:19.693Z,1.03
2022-10-22T08:40:09.196Z,0.90
2022-10-22T08:43:33.982Z,1.50
2022-10-22T08:46:35.378Z,0.70
2022-10-22T08:49:29.830Z,0.70
2022-10-22T08:52:20.416Z,0.47
2022-10-22T08:55:15.662Z,0.80
2022-10-22T08:58:17.834Z,1.43
2022-10-22T09:01:11.923Z,2.00
2022-10-22T09:04:06.708Z,1.40
2022-10-22T09:07:00.917Z,1.30
2022-10-22T09:09:53.205Z,1.87
2022-10-22T09:12:42.080Z,1.67
2022-10-22T09:15:31.705Z,1.77
2022-10-22T09:18:32.281Z,1.40
2022-10-22T09:21:30.614Z,1.53
2022-10-22T09:24:33.399Z,2.03
2022-10-22T09:27:28.463Z,1.10
2022-10-22T09:30:19.010Z,1.37
2022-10-22T09:33:14.114Z,1.90
2022-10-22T09:36:05.862Z,1.90
2022-10-22T09:38:55.086Z,1.70
2022-10-22T09:41:45.176Z,2.20
2022-10-22T09:44:35.293Z,2.93
2022-10-22T09:47:43.363Z,2.47
2022-10-22T09:50:43.984Z,2.47
2022-10-22T09:53:38.385Z,1.37
2022-10-22T09:56:29.029Z,2.57
2022-10-22T09:59:21.161Z,3.67
2022-10-22T10:02:20.166Z,1.20
2022-10-22T10:05:21.456Z,1.70
2022-10-22T10:08:18.889Z,1.90
2022-10-22T10:11:15.535Z,1.70
2022-10-22T10:14:12.758Z,2.10
2022-10-22T10:17:09.578Z,1.53
2022-10-22T10:20:10.648Z,1.87
2022-10-22T10:23:09.832Z,1.27
2022-10-22T10:26:05.018Z,1.70
2022-10-22T10:29:10.408Z,2.10
2022-10-22T10:32:22.319Z,2.10
2022-10-22T10:35:24.104Z,1.47
2022-10-22T10:38:37.758Z,2.63
2022-10-22T10:41:38.993Z,2.10
2022-10-22T10:44:48.053Z,2.40
2022-10-22T10:48:05.489Z,1.63
2022-10-22T10:51:04.626Z,2.03
2022-10-22T10:54:06.455Z,2.50
2022-10-22T10:56:59.053Z,2.63
2022-10-22T11:00:01.495Z,2.13
2022-10-22T11:03:19.514Z,2.70
2022-10-22T11:06:12.266Z,1.87
2022-10-22T11:09:04.605Z,1.67
2022-10-22T11:11:57.983Z,2.57
2022-10-22T11:14:58.748Z,1.87
2022-10-22T11:17:49.931Z,2.20
2022-10-22T11:20:50.407Z,2.63
2022-10-22T11:23:45.491Z,2.47
2022-10-22T11:26:43.267Z,2.20
2022-10-22T11:29:36.654Z,2.13
2022-10-22T11:32:27.647Z,2.53
2022-10-22T11:35:20.212Z,2.37
2022-10-22T11:38:17.679Z,2.47
2022-10-22T11:41:11.129Z,2.57
2022-10-22T11:44:09.363Z,2.10
2022-10-22T11:47:00.323Z,2.57
2022-10-22T11:49:58.902Z,2.30
2022-10-22T11:53:03.252Z,2.40
2022-10-22T11:55:55.787Z,2.23
2022-10-22T11:58:50.774Z,3.07
2022-10-22T12:01:44.168Z,2.83
2022-10-22T12:04:43.275Z,2.63
2022-10-22T12:07:35.063Z,2.33
2022-10-22T12:10:28.173Z,2.63
2022-10-22T12:13:23.774Z,1.77
2022-10-22T12:16:14.863Z,2.17
2022-10-22T12:19:07.173Z,1.95
2022-10-22T12:22:00.088Z,2.10
2022-10-22T12:24:50.724Z,2.00
2022-10-22T12:27:41.026Z,2.90
2022-10-22T12:30:34.796Z,1.45
2022-10-22T12:33:26.544Z,1.73
2022-10-22T12:36:19.932Z,2.20
2022-10-22T12:39:14.026Z,3.40
2022-10-22T12:42:02.637Z,2.43
2022-10-22T12:44:57.023Z,1.70
2022-10-22T12:47:49.293Z,2.20
2022-10-22T12:50:42.285Z,2.53
2022-10-22T12:53:33.353Z,2.30
2022-10-22T12:56:25.423Z,2.37
2022-10-22T12:59:19.649Z,2.40
2022-10-22T13:02:19.043Z,1.90
2022-10-22T13:05:34.300Z,2.30
2022-10-22T13:11:14.143Z,1.53
2022-10-22T13:14:04.021Z,2.57
2022-10-22T13:17:11.375Z,2.13
2022-10-22T13:20:05.473Z,1.90
2022-10-22T13:23:01.373Z,1.90
2022-10-22T13:26:00.420Z,2.17
2022-10-22T13:28:53.517Z,2.30
2022-10-22T13:31:48.688Z,2.10
2022-10-22T13:34:37.310Z,1.33
2022-10-22T13:37:26.313Z,2.23
2022-10-22T13:40:17.096Z,1.93
2022-10-22T13:43:05.739Z,1.80
2022-10-22T13:45:57.174Z,2.30
2022-10-22T13:48:47.486Z,2.80
2022-10-22T13:51:36.734Z,2.63
2022-10-22T13:54:26.717Z,2.83
2022-10-22T13:57:16.828Z,3.23
2022-10-22T14:00:06.233Z,3.13
2022-10-22T14:02:58.270Z,3.23
2022-10-22T14:05:47.989Z,1.60
2022-10-22T14:08:36.697Z,2.60
2022-10-22T14:11:27.336Z,2.73
2022-10-22T14:14:18.969Z,2.37
2022-10-22T14:17:10.433Z,2.43
2022-10-22T14:19:59.444Z,1.48
2022-10-22T14:22:48.574Z,3.00
2022-10-22T14:25:37.154Z,2.63
2022-10-22T14:28:26.348Z,1.20
2022-10-22T14:31:17.193Z,2.23
2022-10-22T14:34:06.247Z,3.40
2022-10-22T14:36:55.283Z,2.80
2022-10-22T14:39:44.289Z,2.40
2022-10-22T14:42:34.209Z,3.53
2022-10-22T14:45:25.347Z,2.63
2022-10-22T14:48:16.270Z,2.90
2022-10-22T14:51:05.818Z,2.87
2022-10-22T14:53:54.537Z,2.10
2022-10-22T14:56:43.150Z,2.63
2022-10-22T14:59:32.070Z,3.77
2022-10-22T15:02:20.729Z,3.07
2022-10-22T15:05:11.485Z,4.07
2022-10-22T15:08:00.481Z,2.80
2022-10-22T15:10:58.320Z,3.97
2022-10-22T15:13:46.920Z,4.13
2022-10-22T15:16:35.923Z,3.03
2022-10-22T15:19:24.979Z,3.53
2022-10-22T15:22:15.579Z,3.43
2022-10-22T15:25:09.734Z,2.47
2022-10-22T15:28:02.066Z,1.47
2022-10-22T15:30:56.900Z,0.90
2022-10-22T15:33:45.544Z,1.33
2022-10-22T15:36:34.454Z,1.07
2022-10-22T15:39:25.648Z,1.33
2022-10-22T15:42:15.428Z,1.83
2022-10-22T15:45:04.549Z,1.80
2022-10-22T15:47:53.785Z,1.83
2022-10-22T15:50:42.524Z,1.60
2022-10-22T15:53:31.470Z,1.47
2022-10-22T15:56:22.395Z,1.23
2022-10-22T15:59:14.235Z,1.87
2022-10-22T16:02:03.123Z,1.90
2022-10-22T16:04:51.983Z,1.63
2022-10-22T16:07:40.743Z,2.10
2022-10-22T16:10:29.913Z,2.40
2022-10-22T16:13:21.307Z,1.83
2022-10-22T16:16:10.593Z,2.10
2022-10-22T16:18:59.433Z,2.73
2022-10-22T16:21:50.338Z,1.70
2022-10-22T16:24:41.429Z,0.80
2022-10-22T16:27:30.739Z,0.90
2022-10-22T16:30:21.204Z,0.70
2022-10-22T16:33:11.403Z,0.30
2022-10-22T16:36:00.339Z,1.10
2022-10-22T16:38:50.174Z,0.70
2022-10-22T16:41:39.251Z,1.03
2022-10-22T16:44:28.819Z,0.97
2022-10-22T16:47:19.363Z,0.80
2022-10-22T16:50:09.042Z,0.40
2022-10-22T16:52:58.778Z,0.70
2022-10-22T16:55:48.234Z,3.03
2022-10-22T16:58:37.655Z,1.23
2022-10-22T17:01:30.497Z,1.53
2022-10-22T17:04:22.910Z,1.37
2022-10-22T17:07:12.023Z,1.20
2022-10-22T17:10:01.814Z,0.67
2022-10-22T17:12:51.664Z,0.77
2022-10-22T17:15:40.787Z,0.70
2022-10-22T17:18:30.801Z,0.43
2022-10-22T17:21:22.755Z,0.97
2022-10-22T17:24:23.440Z,0.67
2022-10-22T17:27:12.945Z,0.80
2022-10-22T17:30:05.354Z,0.93
2022-10-22T17:32:55.633Z,0.93
2022-10-22T17:35:45.580Z,0.80
2022-10-22T17:38:37.739Z,0.87
2022-10-22T17:41:30.638Z,0.73
2022-10-22T17:44:20.316Z,0.80
2022-10-22T17:47:10.484Z,0.80
2022-10-22T17:50:00.496Z,0.87
2022-10-22T17:52:50.878Z,0.90
2022-10-22T17:55:42.069Z,0.90
2022-10-22T17:58:32.475Z,0.70
2022-10-22T18:01:24.382Z,0.83
2022-10-22T18:04:17.193Z,0.90
2022-10-22T18:07:06.425Z,0.67
2022-10-22T18:09:57.807Z,1.07
2022-10-22T18:12:49.478Z,0.80
2022-10-22T18:15:39.552Z,1.00
2022-10-22T18:18:28.948Z,0.40
2022-10-22T18:21:19.334Z,0.83
2022-10-22T18:24:09.674Z,1.00
2022-10-22T18:26:59.039Z,0.80
2022-10-22T18:29:53.604Z,1.10
2022-10-22T18:32:43.234Z,0.73
2022-10-22T18:35:34.695Z,1.53
2022-10-22T18:38:24.333Z,0.87
2022-10-22T18:41:16.173Z,0.40
2022-10-22T18:44:07.604Z,0.50
2022-10-22T18:46:59.493Z,0.70
2022-10-22T18:49:49.553Z,1.37
2022-10-22T18:52:40.705Z,0.50
2022-10-22T18:55:30.946Z,0.50
2022-10-22T18:58:21.091Z,0.70
2022-10-22T19:01:12.241Z,0.77
2022-10-22T19:04:03.714Z,1.30
2022-10-22T19:06:53.369Z,0.70
2022-10-22T19:09:44.404Z,0.90
2022-10-22T19:12:33.706Z,0.97
2022-10-22T19:15:23.141Z,0.97
2022-10-22T19:18:15.598Z,0.70
2022-10-22T19:21:07.499Z,1.27
2022-10-22T19:23:57.753Z,1.30
2022-10-22T19:26:48.843Z,0.70
2022-10-22T19:29:38.595Z,0.60
2022-10-22T19:32:30.862Z,0.60
2022-10-22T19:35:20.452Z,0.90
2022-10-22T19:38:10.905Z,1.07
2022-10-22T19:41:00.628Z,0.67
2022-10-22T19:43:52.418Z,0.60
2022-10-22T19:46:41.894Z,0.50
2022-10-22T19:49:31.524Z,1.13
2022-10-22T19:52:21.185Z,1.43
2022-10-22T19:55:12.901Z,0.97
2022-10-22T19:58:02.275Z,2.23
2022-10-22T20:00:51.573Z,1.20
2022-10-22T20:03:41.064Z,1.73
2022-10-22T20:06:30.423Z,1.13
2022-10-22T20:09:19.188Z,1.07
2022-10-22T20:12:10.009Z,0.63
2022-10-22T20:14:58.810Z,0.60
2022-10-22T20:17:47.554Z,0.83
2022-10-22T20:20:39.998Z,0.80
2022-10-22T20:23:29.639Z,0.87
2022-10-22T20:26:18.595Z,1.73
2022-10-22T20:29:09.789Z,0.90
2022-10-22T20:31:59.637Z,0.90
2022-10-22T20:34:48.574Z,0.73
2022-10-22T20:37:37.764Z,0.93
2022-10-22T20:40:27.564Z,1.53
2022-10-22T20:43:17.215Z,1.17
2022-10-22T20:46:08.655Z,1.83
2022-10-22T20:49:01.734Z,1.03
2022-10-22T20:51:50.838Z,1.10
2022-10-22T20:54:42.980Z,1.30
2022-10-22T20:57:33.357Z,0.93
2022-10-22T21:00:22.309Z,1.03
2022-10-22T21:03:13.055Z,1.30
2022-10-22T21:06:01.614Z,1.57
2022-10-22T21:08:50.761Z,1.37
2022-10-22T21:11:40.666Z,1.37
2022-10-22T21:14:29.949Z,1.77
2022-10-22T21:17:18.578Z,1.53
2022-10-22T21:22:58.053Z,2.27
2022-10-22T21:25:55.019Z,1.77
2022-10-22T21:28:43.759Z,1.50
2022-10-22T21:31:32.427Z,1.93
2022-10-22T21:34:21.480Z,0.70
2022-10-22T21:37:11.567Z,0.97
2022-10-22T21:40:00.833Z,1.17
2022-10-22T21:42:51.425Z,1.77
2022-10-22T21:45:40.118Z,1.00
2022-10-22T21:48:28.713Z,0.60
2022-10-22T21:51:20.167Z,1.37
2022-10-22T21:54:12.449Z,0.93
2022-10-22T21:57:01.023Z,1.07
2022-10-22T21:59:49.604Z,0.80
2022-10-22T22:02:38.157Z,1.33
2022-10-22T22:05:27.458Z,0.83
2022-10-22T22:08:16.186Z,0.80
2022-10-22T22:11:08.710Z,0.60
2022-10-22T22:13:58.891Z,0.97
2022-10-22T22:16:47.550Z,0.90
2022-10-22T22:19:36.129Z,0.70
2022-10-22T22:22:25.077Z,0.93
2022-10-22T22:25:13.680Z,0.70
2022-10-22T22:28:03.747Z,0.50
2022-10-22T22:30:52.444Z,0.60
2022-10-22T22:33:41.265Z,1.07
2022-10-22T22:36:33.593Z,1.23
2022-10-22T22:39:23.902Z,0.60
2022-10-22T22:42:12.519Z,0.80
2022-10-22T22:45:02.852Z,0.50
2022-10-22T22:47:51.484Z,0.53
2022-10-22T22:50:40.009Z,0.80
2022-10-22T22:53:29.204Z,0.67
2022-10-22T22:56:19.848Z,0.97
2022-10-22T22:59:08.559Z,0.53
2022-10-22T23:01:58.822Z,0.77
2022-10-22T23:04:47.746Z,0.63
2022-10-22T23:07:36.520Z,0.50
2022-10-22T23:10:25.122Z,0.63
2022-10-22T23:13:13.715Z,0.83
2022-10-22T23:16:07.068Z,0.70
2022-10-22T23:18:58.180Z,0.87
2022-10-22T23:21:48.581Z,0.80
2022-10-22T23:24:37.888Z,0.67
2022-10-22T23:27:26.498Z,0.60
2022-10-22T23:30:15.335Z,0.97
2022-10-22T23:33:03.918Z,0.90
2022-10-22T23:35:53.984Z,0.90
2022-10-22T23:38:43.565Z,0.70
2022-10-22T23:41:32.186Z,0.83
2022-10-22T23:44:21.299Z,0.60
2022-10-22T23:47:09.944Z,0.80
2022-10-22T23:49:58.645Z,0.80
2022-10-22T23:52:48.764Z,0.90
2022-10-22T23:55:38.444Z,0.53
2022-10-22T23:58:27.123Z,0.70
